< < Back
Terminal Aerodrome Forecast


Current Version              Previous Versions:   1  2  3  4  5  6  7  8  9  

Terminal Aerodrome Forecast

148
FTUS42 KCAE 172100 AAE
TAFAGS
TAF AMD
KAGS 172107Z 1721/1818 VRB03KT P6SM BKN040
      TEMPO 1721/1722 4SM -SHRA BR BKN025
     FM172300 VRB05KT P6SM BKN040
     FM180800 VRB03KT 2SM BR BKN006
     FM181600 06005KT P6SM SCT020=

Latest METAR

862
SAUS70 KWBC 172300 RRP
MTRAGS
METAR KAGS 172253Z 00000KT 10SM VCTS FEW021 BKN055 OVC100 23/21 A2987
RMK AO2 LTG DSNT W RAB20E50 TSB07E22 SLP114 P0000
T02280211


USA.gov is the U.S. government's official web portal to all federal, state and local government web resources and services.